Grand Marais, Michigan
Current Conditions -  °F | °C
As of 3:05 AM on Monday 22 Dec 2014 (Local Time) from KERY Reporting Station
Overcast Overcast  
Wind Chill: 23°   Ceiling: 700
Heat Index: 32°   Visibility: 5mi
Dew Point: 30°   Wind: 13mph
Humidity: 93%   Direction: 150°SSE
Pressure: 30.01"   Gusts: 21mph
Location:  46.67°N, 85.99°W
Report Text: KERY 220805Z AUTO 15011G18KT 5SM OVC007 00/M01 A3001 RMK AO2
Loading
Personal Weather Stations






























Interactive Weather Map New forecast layout! Learn more

10-Day Weather Forecast

Advertisements
Track Severe Weather on mobile